Time;durP1;ratioP1;P1;durP2;ratioP2;P2;SDS_P1;SDS_P2;PMS_P1;PMS_P2;Temp;Humidity;BMP_temperature;BMP_pressure;BME280_temperature;BME280_humidity;BME280_pressure;Samples;Min_cycle;Max_cycle;Signal;HPM_P1;HPM_P2
2022/08/17 00:02:20;;;;;;;7.23;6.53;;;;;;;;;;5093094;28;20678;-87
2022/08/17 00:04:47;;;;;;;7.87;6.90;;;;;;;;;;5074766;28;20204;-87
2022/08/17 00:07:14;;;;;;;7.17;6.47;;;;;;;;;;5092848;28;20211;-87
2022/08/17 00:09:41;;;;;;;8.93;6.57;;;;;;;;;;5073548;28;20680;-87
2022/08/17 00:12:08;;;;;;;8.10;7.40;;;;;;;;;;5092056;28;20595;-87
2022/08/17 00:14:36;;;;;;;7.17;6.57;;;;;;;;;;5092914;28;20253;-87
2022/08/17 00:20:27;;;;;;;8.50;6.10;;;;;;;;;;5092353;28;20207;-87
2022/08/17 00:23:03;;;;;;;7.23;6.63;;;;;;;;;;5072029;28;20269;-87
2022/08/17 00:25:30;;;;;;;8.87;6.37;;;;;;;;;;5091277;28;20552;-86
2022/08/17 00:27:57;;;;;;;7.13;6.43;;;;;;;;;;5072904;28;20196;-85
2022/08/17 00:30:24;;;;;;;8.13;7.33;;;;;;;;;;5073007;28;20259;-86
2022/08/17 00:32:51;;;;;;;8.03;7.27;;;;;;;;;;5074053;28;20219;-85
2022/08/17 00:35:22;;;;;;;7.33;6.47;;;;;;;;;;5074082;28;20216;-86
2022/08/17 00:37:50;;;;;;;7.63;6.63;;;;;;;;;;5092309;28;20261;-86
2022/08/17 00:40:18;;;;;;;8.67;6.80;;;;;;;;;;5091719;28;20196;-86
2022/08/17 00:42:47;;;;;;;7.10;6.53;;;;;;;;;;5074512;28;20193;-86
2022/08/17 00:45:15;;;;;;;6.53;6.03;;;;;;;;;;5074352;28;20208;-86
2022/08/17 00:47:43;;;;;;;7.97;7.17;;;;;;;;;;5074077;28;20201;-86
2022/08/17 00:50:14;;;;;;;6.80;6.20;;;;;;;;;;5091930;28;20236;-87
2022/08/17 00:52:46;;;;;;;6.73;6.13;;;;;;;;;;5091855;28;20238;-86
2022/08/17 00:55:14;;;;;;;7.10;6.50;;;;;;;;;;5074423;28;20208;-87
2022/08/17 00:57:45;;;;;;;7.20;6.60;;;;;;;;;;5092099;28;20196;-86
2022/08/17 01:00:16;;;;;;;7.03;6.47;;;;;;;;;;5090979;28;20196;-86
2022/08/17 01:02:44;;;;;;;7.13;6.53;;;;;;;;;;5091714;28;20729;-86
2022/08/17 01:05:15;;;;;;;7.10;6.50;;;;;;;;;;5091635;28;20262;-86
2022/08/17 01:07:43;;;;;;;8.37;7.60;;;;;;;;;;5074399;28;20262;-86
2022/08/17 01:10:11;;;;;;;8.93;7.20;;;;;;;;;;5057320;28;20243;-85
2022/08/17 01:12:40;;;;;;;7.90;7.10;;;;;;;;;;5074001;28;20220;-86
2022/08/17 01:15:08;;;;;;;7.80;7.03;;;;;;;;;;5072073;28;20193;-86
2022/08/17 01:17:35;;;;;;;7.20;6.57;;;;;;;;;;5073685;28;20281;-86
2022/08/17 01:20:03;;;;;;;7.53;6.83;;;;;;;;;;5057519;28;20257;-87
2022/08/17 01:22:32;;;;;;;7.80;7.20;;;;;;;;;;5057267;28;20205;-86
2022/08/17 01:25:01;;;;;;;7.70;6.90;;;;;;;;;;5089741;28;20200;-87
2022/08/17 01:27:29;;;;;;;10.27;7.77;;;;;;;;;;5090305;28;20812;-86
2022/08/17 01:29:59;;;;;;;7.13;6.47;;;;;;;;;;5041524;28;20209;-86
2022/08/17 01:32:27;;;;;;;7.80;6.97;;;;;;;;;;5072697;28;20654;-87
2022/08/17 01:34:54;;;;;;;8.97;6.63;;;;;;;;;;5095343;28;20208;-86
2022/08/17 01:37:29;;;;;;;7.13;6.50;;;;;;;;;;5077420;28;20195;-86
2022/08/17 01:40:00;;;;;;;6.90;6.30;;;;;;;;;;5095048;28;20203;-87
2022/08/17 01:42:33;;;;;;;7.53;6.83;;;;;;;;;;5094185;28;20196;-87
2022/08/17 01:45:08;;;;;;;6.87;6.37;;;;;;;;;;5095508;28;20200;-87
2022/08/17 01:47:36;;;;;;;6.80;6.30;;;;;;;;;;5076825;28;20202;-86
2022/08/17 01:50:08;;;;;;;7.33;6.70;;;;;;;;;;5095085;28;20196;-87
2022/08/17 01:52:36;;;;;;;7.60;6.83;;;;;;;;;;5094573;28;20196;-86
2022/08/17 01:55:05;;;;;;;8.07;7.27;;;;;;;;;;5095445;28;20207;-87
2022/08/17 01:57:32;;;;;;;7.50;6.80;;;;;;;;;;5094555;28;20691;-87
2022/08/17 01:59:59;;;;;;;7.87;6.20;;;;;;;;;;5060721;28;20195;-86
2022/08/17 02:02:26;;;;;;;9.10;6.73;;;;;;;;;;5094663;28;20251;-87
2022/08/17 02:04:53;;;;;;;8.47;7.60;;;;;;;;;;5094467;28;20257;-86
2022/08/17 02:07:21;;;;;;;8.70;6.20;;;;;;;;;;5094843;28;20724;-87
2022/08/17 02:09:48;;;;;;;7.23;6.63;;;;;;;;;;5060407;28;20200;-86
2022/08/17 02:12:17;;;;;;;6.70;6.10;;;;;;;;;;5076870;28;20608;-87
2022/08/17 02:14:45;;;;;;;7.23;6.57;;;;;;;;;;5076867;28;20257;-87
2022/08/17 02:17:12;;;;;;;7.40;6.77;;;;;;;;;;5094627;28;20196;-86
2022/08/17 02:19:39;;;;;;;6.70;6.10;;;;;;;;;;5076704;28;20245;-86
2022/08/17 02:22:06;;;;;;;6.90;6.20;;;;;;;;;;5060061;28;20199;-86
2022/08/17 02:24:35;;;;;;;7.13;6.63;;;;;;;;;;5076582;28;20608;-86
2022/08/17 02:27:02;;;;;;;5.47;5.00;;;;;;;;;;5076114;28;20724;-86
2022/08/17 02:29:31;;;;;;;6.73;6.00;;;;;;;;;;5093582;28;20659;-85
2022/08/17 02:31:59;;;;;;;7.20;6.57;;;;;;;;;;5093966;28;20204;-86
2022/08/17 02:34:26;;;;;;;6.73;6.07;;;;;;;;;;5094341;28;20314;-86
2022/08/17 02:36:53;;;;;;;10.37;6.00;;;;;;;;;;5075887;28;20660;-85
2022/08/17 02:39:20;;;;;;;6.90;5.53;;;;;;;;;;5059357;28;20736;-86
2022/08/17 02:41:47;;;;;;;6.83;6.27;;;;;;;;;;5075749;28;20215;-85
2022/08/17 02:44:14;;;;;;;7.53;5.77;;;;;;;;;;5093196;28;20203;-85
2022/08/17 02:46:43;;;;;;;8.17;7.47;;;;;;;;;;5076498;28;20203;-85
2022/08/17 02:49:10;;;;;;;5.90;5.50;;;;;;;;;;5093294;28;20208;-85
2022/08/17 02:51:37;;;;;;;8.77;6.03;;;;;;;;;;5075993;28;20258;-85
2022/08/17 02:54:04;;;;;;;6.10;5.50;;;;;;;;;;5093640;28;20224;-85
2022/08/17 02:56:31;;;;;;;7.50;6.13;;;;;;;;;;5075229;28;20211;-85
2022/08/17 02:58:58;;;;;;;6.37;5.77;;;;;;;;;;5075746;28;20200;-86
2022/08/17 03:01:26;;;;;;;6.27;5.77;;;;;;;;;;5075650;28;20311;-86
2022/08/17 03:03:55;;;;;;;6.47;5.97;;;;;;;;;;5058560;28;20196;-86
2022/08/17 03:06:23;;;;;;;5.87;5.47;;;;;;;;;;5075679;28;20282;-86
2022/08/17 03:08:51;;;;;;;7.93;5.43;;;;;;;;;;5058700;28;20257;-85
2022/08/17 03:11:18;;;;;;;7.00;6.30;;;;;;;;;;5093479;28;20197;-84
2022/08/17 03:13:44;;;;;;;5.40;4.90;;;;;;;;;;5092895;28;20231;-86
2022/08/17 03:16:12;;;;;;;6.10;5.50;;;;;;;;;;5074883;28;20204;-85
2022/08/17 03:18:39;;;;;;;11.03;5.40;;;;;;;;;;5074976;28;20203;-85
2022/08/17 03:21:08;;;;;;;6.00;4.83;;;;;;;;;;5091891;28;20659;-85
2022/08/17 03:23:39;;;;;;;5.53;4.50;;;;;;;;;;5092672;28;20246;-85
2022/08/17 03:26:07;;;;;;;5.37;4.97;;;;;;;;;;5093049;28;20232;-85
2022/08/17 03:28:35;;;;;;;8.30;6.00;;;;;;;;;;5074708;28;20551;-84
2022/08/17 03:31:02;;;;;;;6.33;5.20;;;;;;;;;;5091019;28;20197;-84
2022/08/17 03:33:29;;;;;;;6.50;5.90;;;;;;;;;;5057684;28;20223;-86
2022/08/17 03:35:57;;;;;;;5.37;4.87;;;;;;;;;;5092960;28;20231;-86
2022/08/17 03:38:26;;;;;;;5.70;5.30;;;;;;;;;;5092598;28;20200;-85
2022/08/17 03:40:53;;;;;;;6.47;5.77;;;;;;;;;;5092169;28;20553;-85
2022/08/17 03:43:22;;;;;;;6.17;5.47;;;;;;;;;;5071696;28;20299;-85
2022/08/17 03:56:56;;;;;;;6.17;5.53;;;;;;;;;;5077239;28;20249;-80
2022/08/17 04:02:45;;;;;;;10.13;6.33;;;;;;;;;;5084692;28;20239;-78
2022/08/17 04:05:13;;;;;;;7.23;5.67;;;;;;;;;;5073921;28;20207;-78
2022/08/17 04:07:41;;;;;;;5.57;5.00;;;;;;;;;;5091884;28;20693;-78
2022/08/17 04:10:10;;;;;;;6.07;5.47;;;;;;;;;;5056432;28;20200;-78
2022/08/17 04:12:45;;;;;;;5.57;5.13;;;;;;;;;;5074496;28;20567;-78
2022/08/17 04:15:13;;;;;;;12.10;5.63;;;;;;;;;;5091560;28;20709;-77
2022/08/17 04:17:40;;;;;;;6.03;5.53;;;;;;;;;;5071645;28;20192;-79
2022/08/17 04:20:08;;;;;;;5.87;5.43;;;;;;;;;;5071914;28;20200;-79
2022/08/17 04:22:35;;;;;;;6.13;5.63;;;;;;;;;;5072575;28;20279;-79
2022/08/17 04:25:08;;;;;;;6.30;5.13;;;;;;;;;;5091817;28;20204;-78
2022/08/17 04:27:36;;;;;;;6.20;5.33;;;;;;;;;;5072044;28;20196;-88
2022/08/17 04:30:07;;;;;;;7.77;5.37;;;;;;;;;;5071886;28;20280;-87
2022/08/17 04:32:50;;;;;;;6.40;5.90;;;;;;;;;;5072500;28;20631;-87
2022/08/17 04:35:19;;;;;;;6.20;5.60;;;;;;;;;;5071717;28;20640;-87
2022/08/17 04:37:47;;;;;;;7.47;6.73;;;;;;;;;;5071602;28;20675;-87
2022/08/17 04:43:07;;;;;;;5.80;5.37;;;;;;;;;;5075625;28;20765;-87
2022/08/17 04:45:37;;;;;;;5.80;5.20;;;;;;;;;;5072685;28;20578;-87
2022/08/17 04:48:05;;;;;;;6.23;5.73;;;;;;;;;;5091006;28;20192;-88
2022/08/17 04:50:36;;;;;;;7.13;6.07;;;;;;;;;;5091321;28;20287;-88
2022/08/17 04:53:03;;;;;;;6.10;5.60;;;;;;;;;;5091400;28;20666;-86
2022/08/17 04:55:30;;;;;;;6.00;5.50;;;;;;;;;;5073619;28;20231;-87
2022/08/17 04:57:57;;;;;;;5.23;4.87;;;;;;;;;;5092981;28;20274;-88
2022/08/17 05:00:26;;;;;;;6.13;5.63;;;;;;;;;;5073252;28;20211;-85
2022/08/17 05:02:54;;;;;;;5.87;4.93;;;;;;;;;;5090085;28;20678;-85
2022/08/17 05:05:23;;;;;;;6.07;5.53;;;;;;;;;;5091237;28;20200;-85
2022/08/17 05:07:51;;;;;;;6.00;5.40;;;;;;;;;;5095669;28;20200;-86
2022/08/17 05:10:18;;;;;;;5.83;5.33;;;;;;;;;;5094039;28;20204;-87
2022/08/17 05:12:45;;;;;;;6.87;5.40;;;;;;;;;;5076705;28;20292;-88
2022/08/17 05:15:14;;;;;;;5.60;5.10;;;;;;;;;;5076004;28;20278;-86
2022/08/17 05:17:43;;;;;;;6.90;5.37;;;;;;;;;;5074370;28;20204;-87
2022/08/17 05:20:11;;;;;;;5.77;5.17;;;;;;;;;;5091497;28;20253;-86
2022/08/17 05:22:48;;;;;;;9.07;6.20;;;;;;;;;;5084977;28;20200;-85
2022/08/17 05:25:14;;;;;;;6.47;5.37;;;;;;;;;;5093562;28;20580;-86
2022/08/17 05:27:41;;;;;;;5.60;5.20;;;;;;;;;;5093951;28;20699;-84
2022/08/17 05:30:10;;;;;;;5.90;5.30;;;;;;;;;;5075998;28;20200;-89
2022/08/17 05:32:37;;;;;;;6.20;5.60;;;;;;;;;;5076094;28;20196;-86
2022/08/17 05:35:06;;;;;;;5.23;4.73;;;;;;;;;;5094360;28;20216;-85
2022/08/17 05:37:33;;;;;;;6.13;5.53;;;;;;;;;;5095178;28;20577;-84
2022/08/17 05:40:00;;;;;;;6.07;5.30;;;;;;;;;;5093532;28;20208;-84
2022/08/17 05:42:27;;;;;;;5.60;5.10;;;;;;;;;;5094814;28;20211;-86
2022/08/17 05:44:57;;;;;;;5.50;5.00;;;;;;;;;;5076962;28;20197;-88
2022/08/17 05:47:25;;;;;;;5.37;4.97;;;;;;;;;;5094131;28;20551;-82
2022/08/17 05:49:52;;;;;;;5.30;4.90;;;;;;;;;;5093726;28;20205;-87
2022/08/17 05:52:27;;;;;;;4.87;4.47;;;;;;;;;;5093701;28;20204;-84
2022/08/17 05:55:03;;;;;;;5.50;5.00;;;;;;;;;;5093578;28;20215;-82
2022/08/17 05:57:41;;;;;;;6.80;5.43;;;;;;;;;;5094200;28;20203;-89
2022/08/17 06:00:14;;;;;;;5.37;4.83;;;;;;;;;;5093307;28;20200;-82
2022/08/17 06:02:51;;;;;;;5.13;4.60;;;;;;;;;;5094081;28;20220;-92
2022/08/17 06:05:33;;;;;;;5.13;4.73;;;;;;;;;;5051174;28;20200;-93
2022/08/17 06:08:09;;;;;;;5.33;4.93;;;;;;;;;;5058764;28;20192;-91
2022/08/17 06:10:42;;;;;;;6.57;5.70;;;;;;;;;;5062214;28;20195;-80
2022/08/17 06:13:12;;;;;;;5.27;4.87;;;;;;;;;;5093253;28;20207;-81
2022/08/17 06:15:48;;;;;;;6.10;5.07;;;;;;;;;;5092899;28;20694;-81
2022/08/17 06:18:15;;;;;;;6.43;5.63;;;;;;;;;;5092006;28;20565;-83
2022/08/17 06:20:46;;;;;;;5.50;5.00;;;;;;;;;;5093667;28;20257;-89
2022/08/17 06:23:19;;;;;;;5.97;5.10;;;;;;;;;;5093117;28;20200;-82
2022/08/17 06:25:49;;;;;;;4.97;4.67;;;;;;;;;;5094293;28;20223;-88
2022/08/17 06:28:23;;;;;;;4.80;4.50;;;;;;;;;;5092752;28;20207;-80
2022/08/17 06:30:54;;;;;;;5.90;5.23;;;;;;;;;;5092711;28;20279;-80
2022/08/17 06:33:26;;;;;;;11.00;4.93;;;;;;;;;;5092968;28;20662;-81
2022/08/17 06:35:58;;;;;;;5.40;4.87;;;;;;;;;;5090374;28;20212;-81
2022/08/17 06:38:33;;;;;;;6.10;5.13;;;;;;;;;;5087087;28;20203;-89
2022/08/17 06:41:07;;;;;;;5.83;5.37;;;;;;;;;;5093877;28;20573;-90
2022/08/17 06:43:43;;;;;;;9.13;4.67;;;;;;;;;;5093700;28;20200;-81
2022/08/17 06:46:18;;;;;;;6.27;4.97;;;;;;;;;;5093663;28;20203;-82
2022/08/17 06:48:47;;;;;;;6.13;5.00;;;;;;;;;;5093449;28;20253;-83
2022/08/17 06:51:19;;;;;;;4.93;4.47;;;;;;;;;;5093334;28;20290;-86
2022/08/17 06:53:48;;;;;;;8.77;7.87;;;;;;;;;;5093301;28;20261;-88
2022/08/17 06:56:23;;;;;;;6.83;6.23;;;;;;;;;;5093948;28;20227;-92
2022/08/17 06:58:50;;;;;;;5.70;5.30;;;;;;;;;;5076154;28;20200;-89
2022/08/17 07:01:20;;;;;;;5.33;4.83;;;;;;;;;;5093718;28;20200;-89
2022/08/17 07:03:53;;;;;;;5.13;4.63;;;;;;;;;;5091936;28;20228;-91
2022/08/17 07:06:23;;;;;;;7.33;4.63;;;;;;;;;;5093666;28;20226;-83
2022/08/17 07:08:55;;;;;;;7.47;5.47;;;;;;;;;;5093586;28;20196;-86
2022/08/17 07:11:27;;;;;;;5.50;4.93;;;;;;;;;;5093567;28;20204;-80
2022/08/17 07:14:01;;;;;;;6.73;5.50;;;;;;;;;;5093867;28;20208;-90
2022/08/17 07:16:33;;;;;;;5.40;4.90;;;;;;;;;;5093489;28;20214;-83
2022/08/17 07:18:59;;;;;;;5.72;4.43;;;;;;;;;;5092737;28;20663;-81
2022/08/17 07:21:39;;;;;;;4.80;4.40;;;;;;;;;;5093583;28;20200;-92
2022/08/17 07:27:14;;;;;;;4.93;4.05;;;;;;;;;;5074747;27;20565;-88
2022/08/17 07:29:45;;;;;;;5.22;4.53;;;;;;;;;;5070388;28;20235;-85
2022/08/17 07:32:17;;;;;;;5.18;4.68;;;;;;;;;;5069531;28;20596;-83
2022/08/17 07:35:09;;;;;;;8.13;4.35;;;;;;;;;;5069663;28;20670;-83
2022/08/17 07:37:39;;;;;;;4.93;4.15;;;;;;;;;;5068877;28;20709;-80
2022/08/17 07:40:19;;;;;;;6.78;4.72;;;;;;;;;;5069212;28;20212;-86
2022/08/17 07:43:04;;;;;;;5.15;4.78;;;;;;;;;;5068937;28;20197;-91
2022/08/17 07:48:20;;;;;;;4.88;4.47;;;;;;;;;;5065669;28;20224;-89
2022/08/17 07:50:48;;;;;;;4.95;4.47;;;;;;;;;;5068705;28;20243;-87
2022/08/17 07:53:18;;;;;;;7.47;4.28;;;;;;;;;;5068935;28;20205;-85
2022/08/17 07:55:45;;;;;;;5.32;4.82;;;;;;;;;;5069981;28;20201;-91
2022/08/17 07:58:18;;;;;;;4.72;4.22;;;;;;;;;;5050227;28;20254;-88
2022/08/17 08:00:45;;;;;;;10.30;4.75;;;;;;;;;;5068827;28;20205;-89
2022/08/17 08:03:17;;;;;;;5.03;4.30;;;;;;;;;;5069599;28;20212;-90
2022/08/17 08:05:53;;;;;;;6.40;4.93;;;;;;;;;;5069183;28;20224;-88
2022/08/17 08:08:29;;;;;;;5.20;4.75;;;;;;;;;;5069133;28;20197;-88
2022/08/17 08:11:03;;;;;;;7.38;4.88;;;;;;;;;;5069742;28;20197;-87
2022/08/17 08:13:32;;;;;;;5.80;4.80;;;;;;;;;;5084769;28;20259;-89
2022/08/17 08:16:15;;;;;;;5.22;4.10;;;;;;;;;;5069129;28;20223;-88
2022/08/17 08:18:43;;;;;;;4.20;3.80;;;;;;;;;;5068527;28;20201;-88
2022/08/17 08:21:17;;;;;;;5.00;4.53;;;;;;;;;;5068138;28;20194;-84
2022/08/17 08:23:49;;;;;;;5.25;4.78;;;;;;;;;;5069073;28;20682;-81
2022/08/17 08:26:25;;;;;;;4.90;4.50;;;;;;;;;;5068784;28;20225;-87
2022/08/17 08:29:02;;;;;;;4.97;4.43;;;;;;;;;;5068792;28;20540;-89
2022/08/17 08:31:43;;;;;;;5.43;4.90;;;;;;;;;;5067823;28;20631;-86
2022/08/17 08:34:17;;;;;;;5.53;4.75;;;;;;;;;;5069019;28;20284;-90
2022/08/17 08:36:49;;;;;;;4.90;4.45;;;;;;;;;;5065070;28;20201;-83
2022/08/17 08:39:20;;;;;;;5.47;5.07;;;;;;;;;;5054710;28;20197;-83
2022/08/17 08:41:57;;;;;;;5.38;4.88;;;;;;;;;;5055330;28;20201;-81
2022/08/17 08:44:44;;;;;;;5.35;4.22;;;;;;;;;;5054696;28;20201;-79
2022/08/17 08:47:18;;;;;;;4.93;4.50;;;;;;;;;;5054126;28;20257;-78
2022/08/17 08:50:08;;;;;;;6.25;4.53;;;;;;;;;;5054794;28;20202;-80
2022/08/17 08:52:52;;;;;;;4.60;4.22;;;;;;;;;;5054323;28;20209;-91
2022/08/17 08:55:23;;;;;;;5.45;4.93;;;;;;;;;;5054597;28;20245;-79
2022/08/17 08:57:54;;;;;;;5.50;4.97;;;;;;;;;;5054860;28;20201;-81
2022/08/17 09:00:24;;;;;;;6.07;4.72;;;;;;;;;;5054098;28;20549;-90
2022/08/17 09:03:08;;;;;;;4.78;4.40;;;;;;;;;;5055563;28;20206;-88
2022/08/17 09:05:47;;;;;;;4.45;4.03;;;;;;;;;;5054737;28;20218;-87
2022/08/17 09:08:19;;;;;;;6.22;4.40;;;;;;;;;;5054338;28;20193;-88
2022/08/17 09:10:54;;;;;;;6.05;4.10;;;;;;;;;;5052795;28;20213;-85
2022/08/17 09:13:25;;;;;;;4.75;3.90;;;;;;;;;;5054227;28;20296;-89
2022/08/17 09:15:56;;;;;;;4.68;4.38;;;;;;;;;;5053995;28;20202;-89
2022/08/17 09:18:26;;;;;;;7.82;4.35;;;;;;;;;;5052416;28;20223;-84
2022/08/17 09:20:56;;;;;;;4.75;4.28;;;;;;;;;;5054537;28;20695;-91
2022/08/17 09:23:31;;;;;;;4.35;3.95;;;;;;;;;;5054751;28;20198;-79
2022/08/17 09:26:04;;;;;;;8.32;4.47;;;;;;;;;;5051852;28;20225;-78
2022/08/17 09:28:35;;;;;;;6.43;3.95;;;;;;;;;;5054009;28;20194;-79
2022/08/17 09:31:08;;;;;;;6.43;4.30;;;;;;;;;;5053468;28;20289;-78
2022/08/17 09:33:42;;;;;;;5.25;4.43;;;;;;;;;;5053707;28;20201;-80
2022/08/17 09:36:14;;;;;;;5.30;4.50;;;;;;;;;;5052492;28;20286;-83
2022/08/17 09:38:48;;;;;;;4.40;3.92;;;;;;;;;;5042773;28;20209;-78
2022/08/17 09:41:20;;;;;;;14.15;4.30;;;;;;;;;;5047297;28;20201;-78
2022/08/17 09:43:54;;;;;;;5.20;3.60;;;;;;;;;;5054134;28;20220;-78
2022/08/17 09:46:25;;;;;;;4.60;4.00;;;;;;;;;;5052206;28;20225;-82
2022/08/17 09:48:56;;;;;;;3.60;3.30;;;;;;;;;;5052246;28;20204;-78
2022/08/17 09:51:30;;;;;;;5.03;3.60;;;;;;;;;;5053697;28;20201;-86
2022/08/17 09:53:57;;;;;;;3.63;3.33;;;;;;;;;;5053143;28;20198;-84
2022/08/17 09:56:40;;;;;;;3.67;3.47;;;;;;;;;;5053336;28;20284;-91
2022/08/17 09:59:27;;;;;;;4.60;4.20;;;;;;;;;;5053393;28;20240;-88
2022/08/17 10:02:04;;;;;;;3.90;3.33;;;;;;;;;;5053614;28;20544;-84
2022/08/17 10:04:40;;;;;;;5.10;4.60;;;;;;;;;;5054088;28;20228;-88
2022/08/17 10:07:14;;;;;;;4.60;3.70;;;;;;;;;;5052967;28;20228;-86
2022/08/17 10:09:55;;;;;;;3.42;3.13;;;;;;;;;;5057092;28;20202;-84
2022/08/17 10:12:31;;;;;;;3.60;3.20;;;;;;;;;;5062625;28;20239;-87
2022/08/17 10:15:08;;;;;;;3.65;3.45;;;;;;;;;;5053355;28;20235;-87
2022/08/17 10:17:42;;;;;;;4.15;3.78;;;;;;;;;;5050731;28;20205;-88
2022/08/17 10:20:12;;;;;;;3.90;3.45;;;;;;;;;;5053251;28;20220;-88
2022/08/17 10:28:16;;;;;;;5.45;3.53;;;;;;;;;;5053123;28;20718;-88
2022/08/17 10:30:47;;;;;;;4.78;3.60;;;;;;;;;;5052166;28;20610;-88
2022/08/17 10:33:17;;;;;;;4.13;3.80;;;;;;;;;;5050655;28;20201;-88
2022/08/17 10:35:49;;;;;;;3.90;3.58;;;;;;;;;;5052357;28;20220;-88
2022/08/17 10:38:36;;;;;;;3.60;3.30;;;;;;;;;;5051574;28;20334;-87
2022/08/17 10:41:15;;;;;;;4.10;3.80;;;;;;;;;;5049115;28;20206;-82
2022/08/17 10:43:47;;;;;;;4.00;3.70;;;;;;;;;;5050900;28;20194;-85
2022/08/17 10:46:17;;;;;;;7.15;3.65;;;;;;;;;;5050033;28;20232;-85
2022/08/17 10:48:46;;;;;;;4.10;3.70;;;;;;;;;;5065546;28;20217;-85
2022/08/17 10:51:36;;;;;;;4.00;3.55;;;;;;;;;;5051564;28;20202;-83
2022/08/17 10:54:04;;;;;;;7.88;4.20;;;;;;;;;;5052185;28;20201;-85
2022/08/17 10:56:56;;;;;;;6.72;3.80;;;;;;;;;;5052509;28;20259;-83
2022/08/17 10:59:49;;;;;;;3.92;3.58;;;;;;;;;;5050845;28;20198;-90
2022/08/17 11:02:24;;;;;;;5.00;3.72;;;;;;;;;;5051149;28;20308;-92
2022/08/17 11:05:06;;;;;;;4.22;3.80;;;;;;;;;;5052653;28;20284;-90
2022/08/17 11:07:46;;;;;;;4.78;3.55;;;;;;;;;;5051567;28;20725;-80
2022/08/17 11:10:32;;;;;;;8.27;4.03;;;;;;;;;;5051980;28;20236;-79
2022/08/17 11:13:04;;;;;;;6.30;3.67;;;;;;;;;;5050755;28;20633;-81
2022/08/17 11:15:43;;;;;;;3.97;3.67;;;;;;;;;;5050993;28;20259;-81
2022/08/17 11:18:29;;;;;;;3.45;3.20;;;;;;;;;;5051728;28;20255;-80
2022/08/17 11:21:13;;;;;;;4.22;3.83;;;;;;;;;;5051597;28;20198;-85
2022/08/17 11:23:53;;;;;;;5.63;3.83;;;;;;;;;;5051887;28;20232;-79
2022/08/17 11:26:24;;;;;;;4.00;3.70;;;;;;;;;;5049988;28;20232;-83
2022/08/17 11:28:57;;;;;;;3.47;3.20;;;;;;;;;;5051932;28;20204;-82
2022/08/17 11:31:28;;;;;;;3.42;3.15;;;;;;;;;;5051717;28;20209;-86
2022/08/17 11:34:06;;;;;;;4.05;3.60;;;;;;;;;;5051521;28;20680;-85
2022/08/17 11:37:03;;;;;;;4.00;3.60;;;;;;;;;;5050847;28;20205;-90
2022/08/17 11:39:45;;;;;;;4.07;3.65;;;;;;;;;;5029832;28;20660;-79
2022/08/17 11:42:27;;;;;;;3.65;3.35;;;;;;;;;;5051067;28;20205;-84
2022/08/17 11:44:57;;;;;;;4.05;3.22;;;;;;;;;;5052856;28;20197;-82
2022/08/17 11:53:59;;;;;;;4.60;4.20;;;;;;;;;;5059952;28;20622;-84
2022/08/17 11:56:34;;;;;;;4.30;3.85;;;;;;;;;;5055342;28;20205;-82
2022/08/17 11:59:03;;;;;;;3.78;3.47;;;;;;;;;;5050705;28;20197;-88
2022/08/17 12:01:51;;;;;;;4.18;3.40;;;;;;;;;;5050388;28;20198;-82
2022/08/17 12:04:26;;;;;;;3.85;3.47;;;;;;;;;;5033997;28;20209;-86
2022/08/17 12:06:56;;;;;;;3.78;3.38;;;;;;;;;;5049995;28;20734;-85
2022/08/17 12:09:25;;;;;;;4.10;3.70;;;;;;;;;;5050044;28;20205;-84
2022/08/17 12:11:56;;;;;;;6.97;3.47;;;;;;;;;;5051480;28;20264;-89
2022/08/17 12:14:26;;;;;;;3.42;3.13;;;;;;;;;;5045461;28;20206;-86
2022/08/17 12:17:01;;;;;;;3.97;3.53;;;;;;;;;;5045836;28;20226;-82
2022/08/17 12:19:29;;;;;;;4.35;3.50;;;;;;;;;;5041028;28;20198;-83
2022/08/17 12:21:58;;;;;;;6.82;3.47;;;;;;;;;;5046190;28;20704;-82
2022/08/17 12:24:36;;;;;;;4.68;3.70;;;;;;;;;;5053880;28;20339;-84
2022/08/17 12:27:06;;;;;;;4.35;3.50;;;;;;;;;;5053519;28;20248;-82
2022/08/17 12:29:35;;;;;;;4.72;3.58;;;;;;;;;;5067384;28;20190;-82
2022/08/17 12:32:02;;;;;;;4.60;4.20;;;;;;;;;;5053771;28;20202;-81
2022/08/17 12:34:34;;;;;;;4.03;3.67;;;;;;;;;;5054578;28;20198;-85
2022/08/17 12:37:07;;;;;;;5.25;3.30;;;;;;;;;;5053683;28;20676;-93
2022/08/17 12:39:34;;;;;;;4.60;2.80;;;;;;;;;;5054116;28;20202;-86
2022/08/17 12:42:03;;;;;;;5.60;3.38;;;;;;;;;;5054839;28;20209;-93
2022/08/17 12:44:34;;;;;;;5.32;4.15;;;;;;;;;;5053322;28;20202;-81
2022/08/17 12:47:05;;;;;;;5.20;3.13;;;;;;;;;;5053290;28;20217;-81
2022/08/17 12:49:34;;;;;;;5.47;3.97;;;;;;;;;;5053246;28;20279;-86
2022/08/17 12:52:12;;;;;;;6.28;3.28;;;;;;;;;;5053838;28;20194;-88
2022/08/17 12:54:45;;;;;;;4.00;3.35;;;;;;;;;;5053593;28;20263;-86
2022/08/17 12:57:15;;;;;;;3.78;3.42;;;;;;;;;;5053436;28;20264;-89
2022/08/17 12:59:46;;;;;;;5.68;3.45;;;;;;;;;;5054332;28;20198;-90
2022/08/17 13:02:40;;;;;;;4.13;3.40;;;;;;;;;;5054767;28;20206;-93
2022/08/17 13:05:16;;;;;;;4.47;3.40;;;;;;;;;;5054632;28;20193;-83
2022/08/17 13:07:45;;;;;;;3.75;3.33;;;;;;;;;;5052630;28;20419;-83
2022/08/17 13:10:20;;;;;;;4.07;3.45;;;;;;;;;;5052869;28;20201;-84
2022/08/17 13:12:49;;;;;;;4.25;3.38;;;;;;;;;;5052950;28;20199;-85
2022/08/17 13:15:29;;;;;;;3.58;3.28;;;;;;;;;;5052861;28;20209;-80
2022/08/17 13:18:05;;;;;;;7.70;4.32;;;;;;;;;;5053668;28;20205;-93
2022/08/17 13:20:32;;;;;;;5.85;3.10;;;;;;;;;;5052709;28;20580;-83
2022/08/17 13:23:01;;;;;;;3.65;3.35;;;;;;;;;;5053237;28;20194;-86
2022/08/17 13:25:30;;;;;;;4.90;3.80;;;;;;;;;;5052246;28;20226;-85
2022/08/17 13:27:57;;;;;;;3.38;3.13;;;;;;;;;;5053553;28;20228;-85
2022/08/17 13:30:30;;;;;;;4.05;3.75;;;;;;;;;;5052220;28;20225;-80
2022/08/17 13:32:57;;;;;;;4.47;4.10;;;;;;;;;;5052529;28;20567;-82
2022/08/17 13:35:42;;;;;;;4.00;3.60;;;;;;;;;;5052823;28;20226;-85
2022/08/17 13:38:11;;;;;;;4.20;3.83;;;;;;;;;;5044662;28;20202;-83
2022/08/17 13:40:42;;;;;;;4.18;3.72;;;;;;;;;;5051712;28;20217;-85
2022/08/17 13:43:10;;;;;;;3.75;3.45;;;;;;;;;;5052450;28;20206;-81
2022/08/17 13:45:52;;;;;;;5.03;3.58;;;;;;;;;;5052445;28;20668;-85
2022/08/17 13:48:27;;;;;;;7.75;4.25;;;;;;;;;;5051912;28;20260;-85
2022/08/17 13:51:13;;;;;;;4.35;3.95;;;;;;;;;;5052322;28;20197;-80
2022/08/17 13:53:56;;;;;;;6.38;4.28;;;;;;;;;;5052380;28;20208;-81
2022/08/17 13:56:39;;;;;;;5.68;4.55;;;;;;;;;;5052498;28;20205;-81
2022/08/17 13:59:09;;;;;;;4.50;4.10;;;;;;;;;;5052121;28;20202;-85
2022/08/17 14:01:40;;;;;;;4.82;4.28;;;;;;;;;;5052106;28;20564;-83
2022/08/17 14:04:09;;;;;;;6.03;4.95;;;;;;;;;;5052121;28;20289;-85
2022/08/17 14:06:46;;;;;;;4.80;4.38;;;;;;;;;;5051928;28;20205;-82
2022/08/17 14:09:14;;;;;;;5.25;4.03;;;;;;;;;;5051753;28;20216;-87
2022/08/17 14:11:41;;;;;;;4.05;3.75;;;;;;;;;;5058964;28;20564;-81
2022/08/17 14:14:08;;;;;;;6.10;4.68;;;;;;;;;;5061464;28;20252;-80
2022/08/17 14:16:36;;;;;;;5.43;4.50;;;;;;;;;;5052276;28;20198;-88
2022/08/17 14:19:08;;;;;;;6.57;5.13;;;;;;;;;;5051825;28;20202;-82
2022/08/17 14:21:35;;;;;;;4.75;4.30;;;;;;;;;;5056954;28;20197;-84
2022/08/17 14:24:02;;;;;;;5.13;4.55;;;;;;;;;;5064981;28;20293;-82
2022/08/17 14:26:29;;;;;;;4.65;4.22;;;;;;;;;;5050902;28;20221;-81
2022/08/17 14:28:55;;;;;;;6.88;4.32;;;;;;;;;;5051336;28;20224;-82
2022/08/17 14:31:22;;;;;;;6.05;4.43;;;;;;;;;;5059687;28;20205;-84
2022/08/17 14:33:49;;;;;;;6.95;4.90;;;;;;;;;;5052083;28;20209;-84
2022/08/17 14:36:17;;;;;;;5.80;4.40;;;;;;;;;;5050916;28;20204;-87
2022/08/17 14:38:44;;;;;;;4.25;3.88;;;;;;;;;;5051073;28;20202;-82
2022/08/17 14:41:11;;;;;;;3.85;3.55;;;;;;;;;;5051921;28;20225;-90
2022/08/17 14:43:38;;;;;;;4.72;3.63;;;;;;;;;;5052476;28;20664;-82
2022/08/17 14:46:05;;;;;;;5.70;4.07;;;;;;;;;;5051026;28;20631;-83
2022/08/17 14:48:37;;;;;;;4.88;4.47;;;;;;;;;;5052102;28;20228;-82
2022/08/17 14:51:05;;;;;;;4.80;4.38;;;;;;;;;;5050882;28;20224;-92
2022/08/17 14:53:33;;;;;;;5.05;4.07;;;;;;;;;;5050745;28;20206;-80
2022/08/17 14:56:01;;;;;;;4.72;4.40;;;;;;;;;;5036265;28;20202;-78
2022/08/17 14:58:29;;;;;;;4.80;4.40;;;;;;;;;;5046758;28;20233;-83
2022/08/17 15:00:56;;;;;;;4.07;3.67;;;;;;;;;;5050257;28;20664;-80
2022/08/17 15:03:23;;;;;;;6.47;5.05;;;;;;;;;;5051918;28;20202;-81
2022/08/17 15:05:50;;;;;;;4.65;4.35;;;;;;;;;;5050214;28;20229;-81
2022/08/17 15:08:17;;;;;;;5.38;4.43;;;;;;;;;;5043947;28;20226;-81
2022/08/17 15:10:47;;;;;;;4.50;4.13;;;;;;;;;;5032309;28;20269;-83
2022/08/17 15:13:19;;;;;;;7.72;4.53;;;;;;;;;;5031740;28;20657;-84
2022/08/17 15:15:46;;;;;;;4.75;4.38;;;;;;;;;;5048764;28;20201;-80
2022/08/17 15:18:13;;;;;;;5.07;4.60;;;;;;;;;;5051523;28;20309;-81
2022/08/17 15:20:40;;;;;;;5.35;4.85;;;;;;;;;;5050524;28;20198;-81
2022/08/17 15:23:08;;;;;;;5.45;4.13;;;;;;;;;;5052089;28;20209;-82
2022/08/17 15:25:35;;;;;;;4.28;3.97;;;;;;;;;;5051856;28;20557;-83
2022/08/17 15:28:05;;;;;;;5.55;4.68;;;;;;;;;;5051465;28;20232;-81
2022/08/17 15:30:32;;;;;;;5.30;4.90;;;;;;;;;;5050497;28;20601;-82
2022/08/17 15:33:01;;;;;;;4.40;4.10;;;;;;;;;;5043181;28;20549;-85
2022/08/17 15:35:30;;;;;;;5.07;4.63;;;;;;;;;;5040749;28;20686;-85
2022/08/17 15:37:59;;;;;;;4.78;4.38;;;;;;;;;;5045764;28;20209;-86
2022/08/17 15:40:26;;;;;;;5.18;4.68;;;;;;;;;;5050010;28;20198;-85
2022/08/17 15:42:56;;;;;;;4.90;4.45;;;;;;;;;;5036954;28;20190;-85
2022/08/17 15:45:27;;;;;;;4.53;4.22;;;;;;;;;;5030316;28;20199;-85
2022/08/17 15:47:54;;;;;;;4.55;4.25;;;;;;;;;;5033118;28;20317;-85